sensor_id;sensor_type;location;lat;lon;timestamp;P1;durP1;ratioP1;P2;durP2;ratioP2
73859;SDS011;62197;51.632;13.700;2023-09-18T00:02:16;7.90;;;4.47;;
73859;SDS011;62197;51.632;13.700;2023-09-18T00:04:42;8.07;;;3.95;;
73859;SDS011;62197;51.632;13.700;2023-09-18T00:07:07;5.95;;;4.32;;
73859;SDS011;62197;51.632;13.700;2023-09-18T00:09:32;7.03;;;4.55;;
73859;SDS011;62197;51.632;13.700;2023-09-18T00:11:58;7.47;;;4.90;;
73859;SDS011;62197;51.632;13.700;2023-09-18T00:14:23;4.97;;;3.80;;
73859;SDS011;62197;51.632;13.700;2023-09-18T00:16:48;10.00;;;6.93;;
73859;SDS011;62197;51.632;13.700;2023-09-18T00:19:14;7.53;;;4.93;;
73859;SDS011;62197;51.632;13.700;2023-09-18T00:21:39;6.35;;;4.50;;
73859;SDS011;62197;51.632;13.700;2023-09-18T00:24:05;8.23;;;4.80;;
73859;SDS011;62197;51.632;13.700;2023-09-18T00:26:30;6.30;;;4.18;;
73859;SDS011;62197;51.632;13.700;2023-09-18T00:28:55;9.23;;;5.40;;
73859;SDS011;62197;51.632;13.700;2023-09-18T00:31:21;4.75;;;3.65;;
73859;SDS011;62197;51.632;13.700;2023-09-18T00:33:46;6.00;;;4.45;;
73859;SDS011;62197;51.632;13.700;2023-09-18T00:36:13;4.90;;;3.75;;
73859;SDS011;62197;51.632;13.700;2023-09-18T00:38:38;6.10;;;3.83;;
73859;SDS011;62197;51.632;13.700;2023-09-18T00:41:03;6.82;;;3.95;;
73859;SDS011;62197;51.632;13.700;2023-09-18T00:43:29;5.85;;;4.28;;
73859;SDS011;62197;51.632;13.700;2023-09-18T00:45:54;5.75;;;3.88;;
73859;SDS011;62197;51.632;13.700;2023-09-18T00:48:19;6.57;;;4.43;;
73859;SDS011;62197;51.632;13.700;2023-09-18T00:50:46;7.82;;;4.95;;
73859;SDS011;62197;51.632;13.700;2023-09-18T00:53:15;6.15;;;4.38;;
73859;SDS011;62197;51.632;13.700;2023-09-18T00:55:45;6.45;;;4.00;;
73859;SDS011;62197;51.632;13.700;2023-09-18T00:58:10;6.55;;;4.68;;
73859;SDS011;62197;51.632;13.700;2023-09-18T01:00:36;7.97;;;4.30;;
73859;SDS011;62197;51.632;13.700;2023-09-18T01:03:02;5.65;;;3.75;;
73859;SDS011;62197;51.632;13.700;2023-09-18T01:05:30;5.38;;;4.32;;
73859;SDS011;62197;51.632;13.700;2023-09-18T01:07:57;5.90;;;4.45;;
73859;SDS011;62197;51.632;13.700;2023-09-18T01:10:22;6.03;;;4.00;;
73859;SDS011;62197;51.632;13.700;2023-09-18T01:12:53;5.10;;;3.80;;
73859;SDS011;62197;51.632;13.700;2023-09-18T01:15:27;7.35;;;4.15;;
73859;SDS011;62197;51.632;13.700;2023-09-18T01:18:05;5.10;;;3.70;;
73859;SDS011;62197;51.632;13.700;2023-09-18T01:20:30;5.10;;;4.25;;
73859;SDS011;62197;51.632;13.700;2023-09-18T01:22:55;5.50;;;4.20;;
73859;SDS011;62197;51.632;13.700;2023-09-18T01:25:21;5.53;;;3.72;;
73859;SDS011;62197;51.632;13.700;2023-09-18T01:27:46;5.80;;;4.57;;
73859;SDS011;62197;51.632;13.700;2023-09-18T01:30:11;6.25;;;4.30;;
73859;SDS011;62197;51.632;13.700;2023-09-18T01:32:38;5.78;;;4.03;;
73859;SDS011;62197;51.632;13.700;2023-09-18T01:35:04;5.20;;;3.78;;
73859;SDS011;62197;51.632;13.700;2023-09-18T01:37:32;6.03;;;4.47;;
73859;SDS011;62197;51.632;13.700;2023-09-18T01:40:00;6.30;;;3.80;;
73859;SDS011;62197;51.632;13.700;2023-09-18T01:42:26;6.63;;;4.10;;
73859;SDS011;62197;51.632;13.700;2023-09-18T01:44:52;6.95;;;4.70;;
73859;SDS011;62197;51.632;13.700;2023-09-18T01:47:19;4.82;;;3.70;;
73859;SDS011;62197;51.632;13.700;2023-09-18T01:49:46;5.78;;;4.22;;
73859;SDS011;62197;51.632;13.700;2023-09-18T01:52:16;6.07;;;4.30;;
73859;SDS011;62197;51.632;13.700;2023-09-18T01:54:42;5.18;;;4.47;;
73859;SDS011;62197;51.632;13.700;2023-09-18T01:57:07;5.60;;;4.15;;
73859;SDS011;62197;51.632;13.700;2023-09-18T01:59:33;6.03;;;4.18;;
73859;SDS011;62197;51.632;13.700;2023-09-18T02:01:58;7.72;;;4.10;;
73859;SDS011;62197;51.632;13.700;2023-09-18T02:04:24;6.25;;;4.40;;
73859;SDS011;62197;51.632;13.700;2023-09-18T02:06:51;5.40;;;4.30;;
73859;SDS011;62197;51.632;13.700;2023-09-18T02:09:17;6.45;;;4.10;;
73859;SDS011;62197;51.632;13.700;2023-09-18T02:11:43;5.70;;;4.40;;
73859;SDS011;62197;51.632;13.700;2023-09-18T02:14:10;6.18;;;4.60;;
73859;SDS011;62197;51.632;13.700;2023-09-18T02:16:37;5.68;;;4.15;;
73859;SDS011;62197;51.632;13.700;2023-09-18T02:19:06;6.13;;;4.72;;
73859;SDS011;62197;51.632;13.700;2023-09-18T02:21:31;5.93;;;4.50;;
73859;SDS011;62197;51.632;13.700;2023-09-18T02:23:57;6.45;;;5.15;;
73859;SDS011;62197;51.632;13.700;2023-09-18T02:26:23;5.82;;;4.32;;
73859;SDS011;62197;51.632;13.700;2023-09-18T02:28:51;7.22;;;4.90;;
73859;SDS011;62197;51.632;13.700;2023-09-18T02:31:18;6.82;;;4.60;;
73859;SDS011;62197;51.632;13.700;2023-09-18T02:33:44;5.47;;;4.53;;
73859;SDS011;62197;51.632;13.700;2023-09-18T02:36:09;5.50;;;4.40;;
73859;SDS011;62197;51.632;13.700;2023-09-18T02:38:35;6.40;;;4.72;;
73859;SDS011;62197;51.632;13.700;2023-09-18T02:41:00;5.90;;;4.50;;
73859;SDS011;62197;51.632;13.700;2023-09-18T02:43:25;6.50;;;4.20;;
73859;SDS011;62197;51.632;13.700;2023-09-18T02:45:51;6.10;;;4.45;;
73859;SDS011;62197;51.632;13.700;2023-09-18T02:48:17;4.75;;;3.97;;
73859;SDS011;62197;51.632;13.700;2023-09-18T02:50:42;6.85;;;4.35;;
73859;SDS011;62197;51.632;13.700;2023-09-18T02:53:11;6.90;;;4.90;;
73859;SDS011;62197;51.632;13.700;2023-09-18T02:55:43;7.10;;;5.40;;
73859;SDS011;62197;51.632;13.700;2023-09-18T02:58:09;7.10;;;5.10;;
73859;SDS011;62197;51.632;13.700;2023-09-18T03:00:35;10.25;;;4.85;;
73859;SDS011;62197;51.632;13.700;2023-09-18T03:03:06;6.32;;;4.50;;
73859;SDS011;62197;51.632;13.700;2023-09-18T03:05:32;8.73;;;4.13;;
73859;SDS011;62197;51.632;13.700;2023-09-18T03:07:57;7.65;;;4.70;;
73859;SDS011;62197;51.632;13.700;2023-09-18T03:10:22;10.68;;;5.97;;
73859;SDS011;62197;51.632;13.700;2023-09-18T03:12:48;7.20;;;4.75;;
73859;SDS011;62197;51.632;13.700;2023-09-18T03:15:14;8.65;;;4.70;;
73859;SDS011;62197;51.632;13.700;2023-09-18T03:17:39;6.40;;;4.85;;
73859;SDS011;62197;51.632;13.700;2023-09-18T03:20:06;6.50;;;4.53;;
73859;SDS011;62197;51.632;13.700;2023-09-18T03:22:33;6.88;;;4.70;;
73859;SDS011;62197;51.632;13.700;2023-09-18T03:24:59;6.38;;;4.90;;
73859;SDS011;62197;51.632;13.700;2023-09-18T03:27:24;6.47;;;4.80;;
73859;SDS011;62197;51.632;13.700;2023-09-18T03:29:57;6.22;;;4.90;;
73859;SDS011;62197;51.632;13.700;2023-09-18T03:32:22;5.70;;;4.38;;
73859;SDS011;62197;51.632;13.700;2023-09-18T03:34:50;6.05;;;4.53;;
73859;SDS011;62197;51.632;13.700;2023-09-18T03:37:16;6.32;;;4.78;;
73859;SDS011;62197;51.632;13.700;2023-09-18T03:39:41;6.00;;;4.75;;
73859;SDS011;62197;51.632;13.700;2023-09-18T03:42:07;7.07;;;5.30;;
73859;SDS011;62197;51.632;13.700;2023-09-18T03:44:32;6.82;;;4.90;;
73859;SDS011;62197;51.632;13.700;2023-09-18T03:46:57;6.35;;;5.05;;
73859;SDS011;62197;51.632;13.700;2023-09-18T03:49:23;8.35;;;5.22;;
73859;SDS011;62197;51.632;13.700;2023-09-18T03:51:48;7.25;;;4.90;;
73859;SDS011;62197;51.632;13.700;2023-09-18T03:54:13;5.97;;;4.30;;
73859;SDS011;62197;51.632;13.700;2023-09-18T03:56:39;5.28;;;4.30;;
73859;SDS011;62197;51.632;13.700;2023-09-18T03:59:04;7.78;;;5.00;;
73859;SDS011;62197;51.632;13.700;2023-09-18T04:01:30;6.07;;;4.50;;
73859;SDS011;62197;51.632;13.700;2023-09-18T04:03:55;6.78;;;4.78;;
73859;SDS011;62197;51.632;13.700;2023-09-18T04:06:21;8.35;;;5.07;;
73859;SDS011;62197;51.632;13.700;2023-09-18T04:08:46;6.85;;;4.82;;
73859;SDS011;62197;51.632;13.700;2023-09-18T04:11:12;6.13;;;4.90;;
73859;SDS011;62197;51.632;13.700;2023-09-18T04:13:37;6.47;;;4.80;;
73859;SDS011;62197;51.632;13.700;2023-09-18T04:16:03;7.07;;;5.07;;
73859;SDS011;62197;51.632;13.700;2023-09-18T04:18:29;8.52;;;4.72;;
73859;SDS011;62197;51.632;13.700;2023-09-18T04:20:54;7.28;;;4.40;;
73859;SDS011;62197;51.632;13.700;2023-09-18T04:25:49;6.88;;;4.93;;
73859;SDS011;62197;51.632;13.700;2023-09-18T04:28:16;7.38;;;5.00;;
73859;SDS011;62197;51.632;13.700;2023-09-18T04:30:43;7.00;;;5.18;;
73859;SDS011;62197;51.632;13.700;2023-09-18T04:33:09;6.43;;;4.93;;
73859;SDS011;62197;51.632;13.700;2023-09-18T04:35:34;6.10;;;4.88;;
73859;SDS011;62197;51.632;13.700;2023-09-18T04:37:59;6.57;;;5.35;;
73859;SDS011;62197;51.632;13.700;2023-09-18T04:40:25;7.28;;;5.35;;
73859;SDS011;62197;51.632;13.700;2023-09-18T04:42:57;9.18;;;4.70;;
73859;SDS011;62197;51.632;13.700;2023-09-18T04:45:23;6.45;;;4.95;;
73859;SDS011;62197;51.632;13.700;2023-09-18T04:47:48;6.60;;;5.05;;
73859;SDS011;62197;51.632;13.700;2023-09-18T04:50:13;6.78;;;5.35;;
73859;SDS011;62197;51.632;13.700;2023-09-18T04:52:39;7.95;;;5.15;;
73859;SDS011;62197;51.632;13.700;2023-09-18T04:55:05;6.22;;;5.13;;
73859;SDS011;62197;51.632;13.700;2023-09-18T04:57:31;6.25;;;5.07;;
73859;SDS011;62197;51.632;13.700;2023-09-18T04:59:56;6.65;;;4.88;;
73859;SDS011;62197;51.632;13.700;2023-09-18T05:02:22;7.18;;;4.97;;
73859;SDS011;62197;51.632;13.700;2023-09-18T05:04:47;6.82;;;4.90;;
73859;SDS011;62197;51.632;13.700;2023-09-18T05:07:12;6.45;;;4.78;;
73859;SDS011;62197;51.632;13.700;2023-09-18T05:09:38;9.00;;;5.60;;
73859;SDS011;62197;51.632;13.700;2023-09-18T05:12:05;7.97;;;5.50;;
73859;SDS011;62197;51.632;13.700;2023-09-18T05:14:33;8.55;;;5.82;;
73859;SDS011;62197;51.632;13.700;2023-09-18T05:16:59;9.65;;;6.50;;
73859;SDS011;62197;51.632;13.700;2023-09-18T05:19:24;7.57;;;6.20;;
73859;SDS011;62197;51.632;13.700;2023-09-18T05:21:50;7.53;;;5.65;;
73859;SDS011;62197;51.632;13.700;2023-09-18T05:24:15;7.28;;;5.10;;
73859;SDS011;62197;51.632;13.700;2023-09-18T05:26:41;9.68;;;5.00;;
73859;SDS011;62197;51.632;13.700;2023-09-18T05:29:06;7.90;;;5.05;;
73859;SDS011;62197;51.632;13.700;2023-09-18T05:31:31;9.13;;;5.15;;
73859;SDS011;62197;51.632;13.700;2023-09-18T05:33:57;8.77;;;5.70;;
73859;SDS011;62197;51.632;13.700;2023-09-18T05:36:22;6.35;;;5.25;;
73859;SDS011;62197;51.632;13.700;2023-09-18T05:38:47;6.25;;;4.78;;
73859;SDS011;62197;51.632;13.700;2023-09-18T05:41:13;9.27;;;5.82;;
73859;SDS011;62197;51.632;13.700;2023-09-18T05:43:38;7.13;;;4.53;;
73859;SDS011;62197;51.632;13.700;2023-09-18T05:46:03;7.78;;;5.20;;
73859;SDS011;62197;51.632;13.700;2023-09-18T05:48:29;8.57;;;4.88;;
73859;SDS011;62197;51.632;13.700;2023-09-18T05:50:54;6.50;;;4.80;;
73859;SDS011;62197;51.632;13.700;2023-09-18T05:53:20;7.07;;;4.63;;
73859;SDS011;62197;51.632;13.700;2023-09-18T05:55:47;6.03;;;4.07;;
73859;SDS011;62197;51.632;13.700;2023-09-18T05:58:13;6.93;;;5.20;;
73859;SDS011;62197;51.632;13.700;2023-09-18T06:00:39;6.80;;;4.10;;
73859;SDS011;62197;51.632;13.700;2023-09-18T06:03:04;8.90;;;5.90;;
73859;SDS011;62197;51.632;13.700;2023-09-18T06:05:31;7.57;;;4.68;;
73859;SDS011;62197;51.632;13.700;2023-09-18T06:07:56;6.03;;;4.72;;
73859;SDS011;62197;51.632;13.700;2023-09-18T06:10:22;6.40;;;4.90;;
73859;SDS011;62197;51.632;13.700;2023-09-18T06:12:47;6.38;;;4.32;;
73859;SDS011;62197;51.632;13.700;2023-09-18T06:15:12;8.88;;;4.43;;
73859;SDS011;62197;51.632;13.700;2023-09-18T06:17:39;7.78;;;4.57;;
73859;SDS011;62197;51.632;13.700;2023-09-18T06:20:06;8.05;;;5.05;;
73859;SDS011;62197;51.632;13.700;2023-09-18T06:22:36;5.97;;;4.82;;
73859;SDS011;62197;51.632;13.700;2023-09-18T06:25:03;7.32;;;4.47;;
73859;SDS011;62197;51.632;13.700;2023-09-18T06:27:28;5.75;;;4.38;;
73859;SDS011;62197;51.632;13.700;2023-09-18T06:29:53;6.93;;;5.65;;
73859;SDS011;62197;51.632;13.700;2023-09-18T06:32:19;7.43;;;4.40;;
73859;SDS011;62197;51.632;13.700;2023-09-18T06:34:44;6.85;;;5.13;;
73859;SDS011;62197;51.632;13.700;2023-09-18T06:37:10;5.65;;;4.32;;
73859;SDS011;62197;51.632;13.700;2023-09-18T06:39:37;7.63;;;4.65;;
73859;SDS011;62197;51.632;13.700;2023-09-18T06:42:03;8.07;;;4.63;;
73859;SDS011;62197;51.632;13.700;2023-09-18T06:44:29;11.80;;;4.63;;
73859;SDS011;62197;51.632;13.700;2023-09-18T06:46:54;5.30;;;4.07;;
73859;SDS011;62197;51.632;13.700;2023-09-18T06:49:19;6.47;;;4.75;;
73859;SDS011;62197;51.632;13.700;2023-09-18T06:51:45;4.70;;;4.18;;
73859;SDS011;62197;51.632;13.700;2023-09-18T06:54:10;6.50;;;4.38;;
73859;SDS011;62197;51.632;13.700;2023-09-18T06:56:36;7.55;;;4.22;;
73859;SDS011;62197;51.632;13.700;2023-09-18T06:59:01;7.75;;;4.65;;
73859;SDS011;62197;51.632;13.700;2023-09-18T07:01:27;9.60;;;3.97;;
73859;SDS011;62197;51.632;13.700;2023-09-18T07:03:53;4.20;;;3.60;;
73859;SDS011;62197;51.632;13.700;2023-09-18T07:06:18;5.38;;;4.10;;
73859;SDS011;62197;51.632;13.700;2023-09-18T07:08:45;4.40;;;3.60;;
73859;SDS011;62197;51.632;13.700;2023-09-18T07:11:12;6.55;;;4.38;;
73859;SDS011;62197;51.632;13.700;2023-09-18T07:13:40;5.80;;;4.35;;
73859;SDS011;62197;51.632;13.700;2023-09-18T07:16:05;5.38;;;4.18;;
73859;SDS011;62197;51.632;13.700;2023-09-18T07:18:31;6.53;;;3.72;;
73859;SDS011;62197;51.632;13.700;2023-09-18T07:20:56;5.53;;;3.80;;
73859;SDS011;62197;51.632;13.700;2023-09-18T07:23:21;7.88;;;3.63;;
73859;SDS011;62197;51.632;13.700;2023-09-18T07:25:47;5.38;;;3.78;;
73859;SDS011;62197;51.632;13.700;2023-09-18T07:28:13;4.68;;;3.47;;
73859;SDS011;62197;51.632;13.700;2023-09-18T07:30:42;6.22;;;3.50;;
73859;SDS011;62197;51.632;13.700;2023-09-18T07:33:12;10.45;;;3.97;;
73859;SDS011;62197;51.632;13.700;2023-09-18T07:35:40;4.53;;;2.90;;
73859;SDS011;62197;51.632;13.700;2023-09-18T07:38:06;4.25;;;3.70;;
73859;SDS011;62197;51.632;13.700;2023-09-18T07:40:31;4.50;;;3.72;;
73859;SDS011;62197;51.632;13.700;2023-09-18T07:42:56;4.30;;;3.40;;
73859;SDS011;62197;51.632;13.700;2023-09-18T07:45:25;5.80;;;3.42;;
73859;SDS011;62197;51.632;13.700;2023-09-18T07:47:50;6.18;;;3.17;;
73859;SDS011;62197;51.632;13.700;2023-09-18T07:50:15;7.40;;;3.63;;
73859;SDS011;62197;51.632;13.700;2023-09-18T07:52:41;6.28;;;3.97;;
73859;SDS011;62197;51.632;13.700;2023-09-18T07:55:07;4.13;;;3.08;;
73859;SDS011;62197;51.632;13.700;2023-09-18T07:57:33;5.88;;;3.47;;
73859;SDS011;62197;51.632;13.700;2023-09-18T07:59:59;5.43;;;3.28;;
73859;SDS011;62197;51.632;13.700;2023-09-18T08:02:32;3.60;;;2.92;;
73859;SDS011;62197;51.632;13.700;2023-09-18T08:04:57;5.63;;;3.13;;
73859;SDS011;62197;51.632;13.700;2023-09-18T08:07:23;4.07;;;2.97;;
73859;SDS011;62197;51.632;13.700;2023-09-18T08:09:48;8.75;;;3.40;;
73859;SDS011;62197;51.632;13.700;2023-09-18T08:12:14;7.03;;;3.50;;
73859;SDS011;62197;51.632;13.700;2023-09-18T08:14:39;3.75;;;2.92;;
73859;SDS011;62197;51.632;13.700;2023-09-18T08:17:04;3.92;;;3.00;;
73859;SDS011;62197;51.632;13.700;2023-09-18T08:19:30;4.35;;;3.17;;
73859;SDS011;62197;51.632;13.700;2023-09-18T08:21:58;3.78;;;2.88;;
73859;SDS011;62197;51.632;13.700;2023-09-18T08:24:28;5.53;;;3.28;;
73859;SDS011;62197;51.632;13.700;2023-09-18T08:26:54;4.45;;;3.08;;
73859;SDS011;62197;51.632;13.700;2023-09-18T08:29:20;5.68;;;3.10;;
73859;SDS011;62197;51.632;13.700;2023-09-18T08:31:46;8.57;;;3.75;;
73859;SDS011;62197;51.632;13.700;2023-09-18T08:34:12;6.93;;;3.28;;
73859;SDS011;62197;51.632;13.700;2023-09-18T08:36:37;3.53;;;2.63;;
73859;SDS011;62197;51.632;13.700;2023-09-18T08:39:02;5.13;;;3.17;;
73859;SDS011;62197;51.632;13.700;2023-09-18T08:41:31;4.93;;;2.97;;
73859;SDS011;62197;51.632;13.700;2023-09-18T08:44:00;10.27;;;3.95;;
73859;SDS011;62197;51.632;13.700;2023-09-18T08:46:28;3.78;;;2.72;;
73859;SDS011;62197;51.632;13.700;2023-09-18T08:48:54;5.65;;;3.35;;
73859;SDS011;62197;51.632;13.700;2023-09-18T08:51:20;5.13;;;3.33;;
73859;SDS011;62197;51.632;13.700;2023-09-18T08:53:46;4.88;;;3.03;;
73859;SDS011;62197;51.632;13.700;2023-09-18T08:56:12;3.42;;;2.83;;
73859;SDS011;62197;51.632;13.700;2023-09-18T08:58:39;4.38;;;2.50;;
73859;SDS011;62197;51.632;13.700;2023-09-18T09:01:07;4.38;;;2.80;;
73859;SDS011;62197;51.632;13.700;2023-09-18T09:03:36;4.13;;;2.75;;
73859;SDS011;62197;51.632;13.700;2023-09-18T09:06:03;3.88;;;2.60;;
73859;SDS011;62197;51.632;13.700;2023-09-18T09:08:29;3.78;;;2.75;;
73859;SDS011;62197;51.632;13.700;2023-09-18T09:10:54;4.05;;;3.10;;
73859;SDS011;62197;51.632;13.700;2023-09-18T09:13:22;7.22;;;3.05;;
73859;SDS011;62197;51.632;13.700;2023-09-18T09:15:51;4.05;;;2.67;;
73859;SDS011;62197;51.632;13.700;2023-09-18T09:18:19;3.70;;;2.80;;
73859;SDS011;62197;51.632;13.700;2023-09-18T09:20:54;3.30;;;2.90;;
73859;SDS011;62197;51.632;13.700;2023-09-18T09:23:23;3.95;;;2.85;;
73859;SDS011;62197;51.632;13.700;2023-09-18T09:25:50;3.22;;;2.35;;
73859;SDS011;62197;51.632;13.700;2023-09-18T09:28:16;4.30;;;2.83;;
73859;SDS011;62197;51.632;13.700;2023-09-18T09:33:25;3.45;;;2.72;;
73859;SDS011;62197;51.632;13.700;2023-09-18T09:35:50;3.38;;;2.50;;
73859;SDS011;62197;51.632;13.700;2023-09-18T09:38:16;3.97;;;2.88;;
73859;SDS011;62197;51.632;13.700;2023-09-18T09:40:44;4.00;;;2.40;;
73859;SDS011;62197;51.632;13.700;2023-09-18T09:43:11;5.57;;;2.75;;
73859;SDS011;62197;51.632;13.700;2023-09-18T09:45:40;7.93;;;2.70;;
73859;SDS011;62197;51.632;13.700;2023-09-18T09:48:06;7.28;;;2.75;;
73859;SDS011;62197;51.632;13.700;2023-09-18T09:50:33;5.13;;;2.70;;
73859;SDS011;62197;51.632;13.700;2023-09-18T09:52:59;3.55;;;2.75;;
73859;SDS011;62197;51.632;13.700;2023-09-18T09:55:26;3.45;;;2.65;;
73859;SDS011;62197;51.632;13.700;2023-09-18T09:57:56;6.82;;;2.72;;
73859;SDS011;62197;51.632;13.700;2023-09-18T10:00:25;3.85;;;2.95;;
73859;SDS011;62197;51.632;13.700;2023-09-18T10:02:55;3.55;;;2.63;;
73859;SDS011;62197;51.632;13.700;2023-09-18T10:05:26;4.50;;;2.58;;
73859;SDS011;62197;51.632;13.700;2023-09-18T10:07:55;5.05;;;2.78;;
73859;SDS011;62197;51.632;13.700;2023-09-18T10:10:24;5.13;;;3.00;;
73859;SDS011;62197;51.632;13.700;2023-09-18T10:12:53;3.15;;;2.72;;
73859;SDS011;62197;51.632;13.700;2023-09-18T10:15:21;3.25;;;2.80;;
73859;SDS011;62197;51.632;13.700;2023-09-18T10:17:48;4.13;;;2.80;;
73859;SDS011;62197;51.632;13.700;2023-09-18T10:20:17;6.45;;;3.00;;
73859;SDS011;62197;51.632;13.700;2023-09-18T10:22:46;3.40;;;2.50;;
73859;SDS011;62197;51.632;13.700;2023-09-18T10:25:18;3.05;;;2.63;;
73859;SDS011;62197;51.632;13.700;2023-09-18T10:27:48;3.30;;;2.85;;
73859;SDS011;62197;51.632;13.700;2023-09-18T10:30:15;5.22;;;2.85;;
73859;SDS011;62197;51.632;13.700;2023-09-18T10:32:43;5.03;;;2.88;;
73859;SDS011;62197;51.632;13.700;2023-09-18T10:35:13;2.88;;;2.38;;
73859;SDS011;62197;51.632;13.700;2023-09-18T10:37:38;3.28;;;2.55;;
73859;SDS011;62197;51.632;13.700;2023-09-18T10:40:08;2.85;;;2.45;;
73859;SDS011;62197;51.632;13.700;2023-09-18T10:42:34;4.68;;;2.63;;
73859;SDS011;62197;51.632;13.700;2023-09-18T10:45:02;4.03;;;2.35;;
73859;SDS011;62197;51.632;13.700;2023-09-18T10:47:29;4.80;;;2.63;;
73859;SDS011;62197;51.632;13.700;2023-09-18T10:49:56;3.92;;;2.28;;
73859;SDS011;62197;51.632;13.700;2023-09-18T10:52:21;5.40;;;2.55;;
73859;SDS011;62197;51.632;13.700;2023-09-18T10:54:47;5.22;;;2.70;;
73859;SDS011;62197;51.632;13.700;2023-09-18T10:57:12;3.38;;;2.83;;
73859;SDS011;62197;51.632;13.700;2023-09-18T10:59:44;3.65;;;2.58;;
73859;SDS011;62197;51.632;13.700;2023-09-18T11:02:13;3.28;;;2.60;;
73859;SDS011;62197;51.632;13.700;2023-09-18T11:04:41;3.55;;;2.65;;
73859;SDS011;62197;51.632;13.700;2023-09-18T11:07:07;2.95;;;2.42;;
73859;SDS011;62197;51.632;13.700;2023-09-18T11:09:40;4.65;;;2.50;;
73859;SDS011;62197;51.632;13.700;2023-09-18T11:12:10;3.15;;;2.42;;
73859;SDS011;62197;51.632;13.700;2023-09-18T11:17:32;3.30;;;2.78;;
73859;SDS011;62197;51.632;13.700;2023-09-18T11:20:16;5.15;;;2.58;;
73859;SDS011;62197;51.632;13.700;2023-09-18T11:22:56;4.20;;;2.67;;
73859;SDS011;62197;51.632;13.700;2023-09-18T11:28:04;3.03;;;2.45;;
73859;SDS011;62197;51.632;13.700;2023-09-18T11:30:34;5.10;;;2.85;;
73859;SDS011;62197;51.632;13.700;2023-09-18T11:33:02;3.60;;;2.60;;
73859;SDS011;62197;51.632;13.700;2023-09-18T11:35:28;3.80;;;2.70;;
73859;SDS011;62197;51.632;13.700;2023-09-18T11:38:03;5.68;;;2.70;;
73859;SDS011;62197;51.632;13.700;2023-09-18T11:40:34;3.65;;;2.60;;
73859;SDS011;62197;51.632;13.700;2023-09-18T11:45:57;4.88;;;2.72;;
73859;SDS011;62197;51.632;13.700;2023-09-18T11:48:24;4.15;;;2.55;;
73859;SDS011;62197;51.632;13.700;2023-09-18T11:50:53;3.42;;;2.47;;
73859;SDS011;62197;51.632;13.700;2023-09-18T11:53:19;5.15;;;2.83;;
73859;SDS011;62197;51.632;13.700;2023-09-18T11:55:45;5.43;;;2.80;;
73859;SDS011;62197;51.632;13.700;2023-09-18T11:58:11;5.32;;;2.78;;
73859;SDS011;62197;51.632;13.700;2023-09-18T12:00:37;3.63;;;2.75;;
73859;SDS011;62197;51.632;13.700;2023-09-18T12:03:17;7.25;;;3.00;;
73859;SDS011;62197;51.632;13.700;2023-09-18T12:05:59;3.35;;;2.70;;
73859;SDS011;62197;51.632;13.700;2023-09-18T12:08:26;4.22;;;2.63;;
73859;SDS011;62197;51.632;13.700;2023-09-18T12:10:55;4.88;;;2.80;;
73859;SDS011;62197;51.632;13.700;2023-09-18T12:13:21;4.45;;;2.70;;
73859;SDS011;62197;51.632;13.700;2023-09-18T12:15:47;7.70;;;3.25;;
73859;SDS011;62197;51.632;13.700;2023-09-18T12:18:14;3.25;;;2.72;;
73859;SDS011;62197;51.632;13.700;2023-09-18T12:20:47;5.28;;;2.53;;
73859;SDS011;62197;51.632;13.700;2023-09-18T12:23:13;4.43;;;2.40;;
73859;SDS011;62197;51.632;13.700;2023-09-18T12:25:38;4.80;;;2.70;;
73859;SDS011;62197;51.632;13.700;2023-09-18T12:28:06;4.97;;;2.45;;
73859;SDS011;62197;51.632;13.700;2023-09-18T12:30:32;5.68;;;2.38;;
73859;SDS011;62197;51.632;13.700;2023-09-18T12:32:58;4.60;;;2.45;;
73859;SDS011;62197;51.632;13.700;2023-09-18T12:35:28;3.20;;;2.33;;
73859;SDS011;62197;51.632;13.700;2023-09-18T12:37:55;3.22;;;2.50;;
73859;SDS011;62197;51.632;13.700;2023-09-18T12:40:31;5.53;;;2.58;;
73859;SDS011;62197;51.632;13.700;2023-09-18T12:42:59;4.43;;;2.38;;
73859;SDS011;62197;51.632;13.700;2023-09-18T12:45:26;3.17;;;2.45;;
73859;SDS011;62197;51.632;13.700;2023-09-18T12:47:54;8.52;;;2.45;;
73859;SDS011;62197;51.632;13.700;2023-09-18T12:50:21;6.40;;;2.33;;
73859;SDS011;62197;51.632;13.700;2023-09-18T12:52:46;4.38;;;1.95;;
73859;SDS011;62197;51.632;13.700;2023-09-18T12:55:26;5.85;;;2.00;;
73859;SDS011;62197;51.632;13.700;2023-09-18T12:57:52;4.05;;;1.90;;
73859;SDS011;62197;51.632;13.700;2023-09-18T13:00:19;3.50;;;1.98;;
73859;SDS011;62197;51.632;13.700;2023-09-18T13:02:48;8.10;;;2.17;;
73859;SDS011;62197;51.632;13.700;2023-09-18T13:05:19;9.13;;;1.98;;
73859;SDS011;62197;51.632;13.700;2023-09-18T13:07:45;7.50;;;1.90;;
73859;SDS011;62197;51.632;13.700;2023-09-18T13:10:11;5.50;;;1.85;;
73859;SDS011;62197;51.632;13.700;2023-09-18T13:12:39;7.18;;;1.95;;
73859;SDS011;62197;51.632;13.700;2023-09-18T13:15:08;7.47;;;1.77;;
73859;SDS011;62197;51.632;13.700;2023-09-18T13:17:37;6.38;;;1.90;;
73859;SDS011;62197;51.632;13.700;2023-09-18T13:20:25;5.45;;;1.77;;
73859;SDS011;62197;51.632;13.700;2023-09-18T13:22:51;6.57;;;1.90;;
73859;SDS011;62197;51.632;13.700;2023-09-18T13:25:19;4.38;;;1.80;;
73859;SDS011;62197;51.632;13.700;2023-09-18T13:27:46;6.63;;;1.95;;
73859;SDS011;62197;51.632;13.700;2023-09-18T13:30:12;9.38;;;1.83;;
73859;SDS011;62197;51.632;13.700;2023-09-18T13:32:41;6.95;;;2.08;;
73859;SDS011;62197;51.632;13.700;2023-09-18T13:35:07;6.63;;;1.48;;
73859;SDS011;62197;51.632;13.700;2023-09-18T13:37:33;6.50;;;1.65;;
73859;SDS011;62197;51.632;13.700;2023-09-18T13:39:59;4.70;;;1.80;;
73859;SDS011;62197;51.632;13.700;2023-09-18T13:42:31;6.07;;;1.88;;
73859;SDS011;62197;51.632;13.700;2023-09-18T13:44:57;4.03;;;1.80;;
73859;SDS011;62197;51.632;13.700;2023-09-18T13:47:25;5.50;;;1.90;;
73859;SDS011;62197;51.632;13.700;2023-09-18T13:49:52;4.75;;;2.05;;
73859;SDS011;62197;51.632;13.700;2023-09-18T13:52:17;5.72;;;1.65;;
73859;SDS011;62197;51.632;13.700;2023-09-18T13:54:44;7.28;;;1.92;;
73859;SDS011;62197;51.632;13.700;2023-09-18T13:57:15;8.98;;;1.50;;
73859;SDS011;62197;51.632;13.700;2023-09-18T13:59:41;6.18;;;1.80;;
73859;SDS011;62197;51.632;13.700;2023-09-18T14:02:07;5.38;;;1.88;;
73859;SDS011;62197;51.632;13.700;2023-09-18T14:04:33;5.68;;;1.98;;
73859;SDS011;62197;51.632;13.700;2023-09-18T14:06:59;6.68;;;1.63;;
73859;SDS011;62197;51.632;13.700;2023-09-18T14:09:24;7.07;;;1.55;;
73859;SDS011;62197;51.632;13.700;2023-09-18T14:11:50;4.00;;;1.52;;
73859;SDS011;62197;51.632;13.700;2023-09-18T14:14:15;5.25;;;1.52;;
73859;SDS011;62197;51.632;13.700;2023-09-18T14:16:40;5.28;;;2.00;;
73859;SDS011;62197;51.632;13.700;2023-09-18T14:19:06;8.38;;;1.67;;
73859;SDS011;62197;51.632;13.700;2023-09-18T14:21:31;5.35;;;1.77;;
73859;SDS011;62197;51.632;13.700;2023-09-18T14:23:58;3.05;;;1.40;;
73859;SDS011;62197;51.632;13.700;2023-09-18T14:26:24;6.30;;;1.48;;
73859;SDS011;62197;51.632;13.700;2023-09-18T14:28:49;5.47;;;1.77;;
73859;SDS011;62197;51.632;13.700;2023-09-18T14:31:15;6.07;;;1.60;;
73859;SDS011;62197;51.632;13.700;2023-09-18T14:33:40;6.88;;;1.60;;
73859;SDS011;62197;51.632;13.700;2023-09-18T14:36:05;5.60;;;1.40;;
73859;SDS011;62197;51.632;13.700;2023-09-18T14:38:31;5.00;;;1.67;;
73859;SDS011;62197;51.632;13.700;2023-09-18T14:40:57;4.20;;;1.50;;
73859;SDS011;62197;51.632;13.700;2023-09-18T14:43:27;3.65;;;1.33;;
73859;SDS011;62197;51.632;13.700;2023-09-18T14:45:52;4.32;;;1.33;;